sensor_id;sensor_type;location;lat;lon;timestamp;temperature;humidity
70534;SHT31;58088;51.186;17.130;2023-05-10T00:00:28;11.93;49.16
70534;SHT31;58088;51.186;17.130;2023-05-10T00:02:54;11.89;49.20
70534;SHT31;58088;51.186;17.130;2023-05-10T00:05:21;11.84;49.22
70534;SHT31;58088;51.186;17.130;2023-05-10T00:07:47;11.80;49.46
70534;SHT31;58088;51.186;17.130;2023-05-10T00:10:13;11.77;49.50
70534;SHT31;58088;51.186;17.130;2023-05-10T00:12:39;11.72;49.63
70534;SHT31;58088;51.186;17.130;2023-05-10T00:15:07;11.64;49.77
70534;SHT31;58088;51.186;17.130;2023-05-10T00:17:34;11.59;49.93
70534;SHT31;58088;51.186;17.130;2023-05-10T00:20:01;11.54;50.02
70534;SHT31;58088;51.186;17.130;2023-05-10T00:22:27;11.49;50.26
70534;SHT31;58088;51.186;17.130;2023-05-10T00:24:54;11.47;50.36
70534;SHT31;58088;51.186;17.130;2023-05-10T00:27:20;11.44;50.40
70534;SHT31;58088;51.186;17.130;2023-05-10T00:29:46;11.41;50.38
70534;SHT31;58088;51.186;17.130;2023-05-10T00:32:12;11.37;50.46
70534;SHT31;58088;51.186;17.130;2023-05-10T00:34:39;11.34;50.54
70534;SHT31;58088;51.186;17.130;2023-05-10T00:37:06;11.32;50.59
70534;SHT31;58088;51.186;17.130;2023-05-10T00:39:32;11.28;50.69
70534;SHT31;58088;51.186;17.130;2023-05-10T00:41:58;11.26;50.74
70534;SHT31;58088;51.186;17.130;2023-05-10T00:44:26;11.20;50.94
70534;SHT31;58088;51.186;17.130;2023-05-10T00:46:52;11.14;51.09
70534;SHT31;58088;51.186;17.130;2023-05-10T00:49:19;11.12;51.08
70534;SHT31;58088;51.186;17.130;2023-05-10T00:51:47;11.10;51.03
70534;SHT31;58088;51.186;17.130;2023-05-10T00:54:15;11.09;51.00
70534;SHT31;58088;51.186;17.130;2023-05-10T00:56:41;11.06;51.12
70534;SHT31;58088;51.186;17.130;2023-05-10T00:59:17;11.01;51.16
70534;SHT31;58088;51.186;17.130;2023-05-10T01:01:45;10.97;51.39
70534;SHT31;58088;51.186;17.130;2023-05-10T01:04:12;10.92;51.45
70534;SHT31;58088;51.186;17.130;2023-05-10T01:06:41;10.87;51.62
70534;SHT31;58088;51.186;17.130;2023-05-10T01:09:07;10.81;51.88
70534;SHT31;58088;51.186;17.130;2023-05-10T01:11:38;10.75;52.01
70534;SHT31;58088;51.186;17.130;2023-05-10T01:14:05;10.68;52.27
70534;SHT31;58088;51.186;17.130;2023-05-10T01:16:36;10.60;52.49
70534;SHT31;58088;51.186;17.130;2023-05-10T01:19:06;10.52;52.72
70534;SHT31;58088;51.186;17.130;2023-05-10T01:31:37;10.23;53.45
70534;SHT31;58088;51.186;17.130;2023-05-10T01:36:51;10.04;53.88
70534;SHT31;58088;51.186;17.130;2023-05-10T01:42:36;9.89;54.38
70534;SHT31;58088;51.186;17.130;2023-05-10T01:48:25;9.75;54.87
70534;SHT31;58088;51.186;17.130;2023-05-10T01:50:55;9.69;54.96
70534;SHT31;58088;51.186;17.130;2023-05-10T01:53:27;9.63;55.14
70534;SHT31;58088;51.186;17.130;2023-05-10T01:55:57;9.56;55.47
70534;SHT31;58088;51.186;17.130;2023-05-10T01:58:30;9.50;55.45
70534;SHT31;58088;51.186;17.130;2023-05-10T02:01:04;9.47;55.60
70534;SHT31;58088;51.186;17.130;2023-05-10T02:04:55;9.40;55.67
70534;SHT31;58088;51.186;17.130;2023-05-10T02:07:27;9.36;55.67
70534;SHT31;58088;51.186;17.130;2023-05-10T02:09:54;9.28;55.78
70534;SHT31;58088;51.186;17.130;2023-05-10T02:12:22;9.24;55.93
70534;SHT31;58088;51.186;17.130;2023-05-10T02:14:51;9.21;56.10
70534;SHT31;58088;51.186;17.130;2023-05-10T02:17:20;9.13;56.27
70534;SHT31;58088;51.186;17.130;2023-05-10T02:19:49;9.08;56.46
70534;SHT31;58088;51.186;17.130;2023-05-10T02:22:26;9.07;56.58
70534;SHT31;58088;51.186;17.130;2023-05-10T02:24:57;9.04;56.65
70534;SHT31;58088;51.186;17.130;2023-05-10T02:27:27;8.96;56.90
70534;SHT31;58088;51.186;17.130;2023-05-10T02:29:57;8.90;57.19
70534;SHT31;58088;51.186;17.130;2023-05-10T02:32:28;8.88;57.32
70534;SHT31;58088;51.186;17.130;2023-05-10T02:34:56;8.87;57.67
70534;SHT31;58088;51.186;17.130;2023-05-10T02:37:30;8.88;57.78
70534;SHT31;58088;51.186;17.130;2023-05-10T02:39:57;8.90;57.91
70534;SHT31;58088;51.186;17.130;2023-05-10T02:42:27;8.93;58.10
70534;SHT31;58088;51.186;17.130;2023-05-10T02:44:59;8.95;58.11
70534;SHT31;58088;51.186;17.130;2023-05-10T02:47:31;8.98;58.03
70534;SHT31;58088;51.186;17.130;2023-05-10T02:49:57;9.00;58.00
70534;SHT31;58088;51.186;17.130;2023-05-10T02:52:27;9.04;58.11
70534;SHT31;58088;51.186;17.130;2023-05-10T02:55:02;9.07;58.22
70534;SHT31;58088;51.186;17.130;2023-05-10T02:57:32;9.08;58.32
70534;SHT31;58088;51.186;17.130;2023-05-10T03:00:03;9.11;58.14
70534;SHT31;58088;51.186;17.130;2023-05-10T03:02:30;9.14;58.05
70534;SHT31;58088;51.186;17.130;2023-05-10T03:04:56;9.17;58.08
70534;SHT31;58088;51.186;17.130;2023-05-10T03:07:23;9.19;58.08
70534;SHT31;58088;51.186;17.130;2023-05-10T03:09:49;9.22;58.09
70534;SHT31;58088;51.186;17.130;2023-05-10T03:15:33;9.29;57.93
70534;SHT31;58088;51.186;17.130;2023-05-10T03:18:28;9.34;57.92
70534;SHT31;58088;51.186;17.130;2023-05-10T03:21:07;9.38;57.82
70534;SHT31;58088;51.186;17.130;2023-05-10T03:26:15;9.47;57.62
70534;SHT31;58088;51.186;17.130;2023-05-10T03:28:48;9.55;57.69
70534;SHT31;58088;51.186;17.130;2023-05-10T03:31:16;9.65;57.51
70534;SHT31;58088;51.186;17.130;2023-05-10T03:33:47;9.87;57.11
70534;SHT31;58088;51.186;17.130;2023-05-10T03:36:17;10.22;56.68
70534;SHT31;58088;51.186;17.130;2023-05-10T03:38:44;10.57;56.01
70534;SHT31;58088;51.186;17.130;2023-05-10T03:41:11;10.94;55.28
70534;SHT31;58088;51.186;17.130;2023-05-10T03:43:38;11.28;54.50
70534;SHT31;58088;51.186;17.130;2023-05-10T03:46:04;11.58;53.82
70534;SHT31;58088;51.186;17.130;2023-05-10T03:48:31;11.89;53.20
70534;SHT31;58088;51.186;17.130;2023-05-10T03:50:58;12.29;52.44
70534;SHT31;58088;51.186;17.130;2023-05-10T03:53:25;12.68;51.61
70534;SHT31;58088;51.186;17.130;2023-05-10T03:55:52;13.10;50.90
70534;SHT31;58088;51.186;17.130;2023-05-10T03:58:18;13.54;50.09
70534;SHT31;58088;51.186;17.130;2023-05-10T04:00:45;13.96;49.19
70534;SHT31;58088;51.186;17.130;2023-05-10T04:03:12;14.37;48.30
70534;SHT31;58088;51.186;17.130;2023-05-10T04:05:39;14.84;47.27
70534;SHT31;58088;51.186;17.130;2023-05-10T04:08:06;15.23;46.46
70534;SHT31;58088;51.186;17.130;2023-05-10T04:10:32;15.63;45.68
70534;SHT31;58088;51.186;17.130;2023-05-10T04:12:59;16.06;44.95
70534;SHT31;58088;51.186;17.130;2023-05-10T04:15:25;16.50;44.26
70534;SHT31;58088;51.186;17.130;2023-05-10T04:17:51;16.91;43.46
70534;SHT31;58088;51.186;17.130;2023-05-10T04:20:17;17.35;42.82
70534;SHT31;58088;51.186;17.130;2023-05-10T04:22:43;17.61;41.85
70534;SHT31;58088;51.186;17.130;2023-05-10T04:25:09;17.81;41.19
70534;SHT31;58088;51.186;17.130;2023-05-10T04:27:35;18.09;40.61
70534;SHT31;58088;51.186;17.130;2023-05-10T04:30:02;18.43;40.19
70534;SHT31;58088;51.186;17.130;2023-05-10T04:32:29;18.71;39.39
70534;SHT31;58088;51.186;17.130;2023-05-10T04:34:55;18.83;38.81
70534;SHT31;58088;51.186;17.130;2023-05-10T04:37:21;18.95;38.36
70534;SHT31;58088;51.186;17.130;2023-05-10T04:39:48;18.94;38.28
70534;SHT31;58088;51.186;17.130;2023-05-10T04:42:14;19.05;38.04
70534;SHT31;58088;51.186;17.130;2023-05-10T04:44:41;19.34;37.56
70534;SHT31;58088;51.186;17.130;2023-05-10T04:47:07;19.57;37.10
70534;SHT31;58088;51.186;17.130;2023-05-10T04:49:33;19.79;36.85
70534;SHT31;58088;51.186;17.130;2023-05-10T04:51:59;20.06;36.59
70534;SHT31;58088;51.186;17.130;2023-05-10T04:54:25;20.32;35.99
70534;SHT31;58088;51.186;17.130;2023-05-10T04:56:51;20.56;35.64
70534;SHT31;58088;51.186;17.130;2023-05-10T04:59:17;20.69;35.44
70534;SHT31;58088;51.186;17.130;2023-05-10T05:01:43;20.83;35.04
70534;SHT31;58088;51.186;17.130;2023-05-10T05:04:09;20.95;34.91
70534;SHT31;58088;51.186;17.130;2023-05-10T05:06:37;21.08;34.46
70534;SHT31;58088;51.186;17.130;2023-05-10T05:09:12;21.27;34.55
70534;SHT31;58088;51.186;17.130;2023-05-10T05:11:39;21.49;33.81
70534;SHT31;58088;51.186;17.130;2023-05-10T05:14:05;21.47;33.60
70534;SHT31;58088;51.186;17.130;2023-05-10T05:16:31;21.55;33.70
70534;SHT31;58088;51.186;17.130;2023-05-10T05:18:57;21.82;33.30
70534;SHT31;58088;51.186;17.130;2023-05-10T05:21:26;21.87;33.06
70534;SHT31;58088;51.186;17.130;2023-05-10T05:23:52;21.84;32.63
70534;SHT31;58088;51.186;17.130;2023-05-10T05:26:18;22.08;32.73
70534;SHT31;58088;51.186;17.130;2023-05-10T05:28:45;22.14;31.96
70534;SHT31;58088;51.186;17.130;2023-05-10T05:31:11;22.34;32.22
70534;SHT31;58088;51.186;17.130;2023-05-10T05:33:37;22.61;32.17
70534;SHT31;58088;51.186;17.130;2023-05-10T05:36:04;22.75;31.84
70534;SHT31;58088;51.186;17.130;2023-05-10T05:38:31;22.66;31.07
70534;SHT31;58088;51.186;17.130;2023-05-10T05:40:57;22.65;31.19
70534;SHT31;58088;51.186;17.130;2023-05-10T05:43:23;22.92;31.54
70534;SHT31;58088;51.186;17.130;2023-05-10T05:45:51;23.18;30.86
70534;SHT31;58088;51.186;17.130;2023-05-10T05:48:19;23.00;30.99
70534;SHT31;58088;51.186;17.130;2023-05-10T05:50:45;22.99;30.86
70534;SHT31;58088;51.186;17.130;2023-05-10T05:53:12;22.92;30.76
70534;SHT31;58088;51.186;17.130;2023-05-10T05:55:38;23.10;30.74
70534;SHT31;58088;51.186;17.130;2023-05-10T05:58:04;23.08;30.30
70534;SHT31;58088;51.186;17.130;2023-05-10T06:00:30;23.12;30.59
70534;SHT31;58088;51.186;17.130;2023-05-10T06:02:57;23.34;30.59
70534;SHT31;58088;51.186;17.130;2023-05-10T06:05:23;23.42;30.63
70534;SHT31;58088;51.186;17.130;2023-05-10T06:07:49;23.69;30.43
70534;SHT31;58088;51.186;17.130;2023-05-10T06:10:15;23.75;30.16
70534;SHT31;58088;51.186;17.130;2023-05-10T06:12:41;23.67;29.69
70534;SHT31;58088;51.186;17.130;2023-05-10T06:15:07;23.48;29.58
70534;SHT31;58088;51.186;17.130;2023-05-10T06:17:35;23.36;29.65
70534;SHT31;58088;51.186;17.130;2023-05-10T06:20:01;23.35;29.88
70534;SHT31;58088;51.186;17.130;2023-05-10T06:22:28;23.42;29.09
70534;SHT31;58088;51.186;17.130;2023-05-10T06:24:54;23.47;29.32
70534;SHT31;58088;51.186;17.130;2023-05-10T06:27:20;23.43;28.78
70534;SHT31;58088;51.186;17.130;2023-05-10T06:29:47;23.26;29.03
70534;SHT31;58088;51.186;17.130;2023-05-10T06:32:13;23.22;29.37
70534;SHT31;58088;51.186;17.130;2023-05-10T06:34:39;23.23;29.44
70534;SHT31;58088;51.186;17.130;2023-05-10T06:37:05;23.37;29.70
70534;SHT31;58088;51.186;17.130;2023-05-10T06:39:31;23.64;29.70
70534;SHT31;58088;51.186;17.130;2023-05-10T06:41:58;23.57;29.35
70534;SHT31;58088;51.186;17.130;2023-05-10T06:44:28;23.56;29.33
70534;SHT31;58088;51.186;17.130;2023-05-10T06:46:54;23.27;29.70
70534;SHT31;58088;51.186;17.130;2023-05-10T06:49:21;23.18;29.73
70534;SHT31;58088;51.186;17.130;2023-05-10T06:51:47;23.14;29.63
70534;SHT31;58088;51.186;17.130;2023-05-10T06:54:13;23.04;29.70
70534;SHT31;58088;51.186;17.130;2023-05-10T06:56:40;22.88;29.53
70534;SHT31;58088;51.186;17.130;2023-05-10T06:59:06;22.83;29.77
70534;SHT31;58088;51.186;17.130;2023-05-10T07:01:32;22.95;30.17
70534;SHT31;58088;51.186;17.130;2023-05-10T07:03:58;23.13;29.85
70534;SHT31;58088;51.186;17.130;2023-05-10T07:06:25;23.28;30.14
70534;SHT31;58088;51.186;17.130;2023-05-10T07:08:51;23.37;30.06
70534;SHT31;58088;51.186;17.130;2023-05-10T07:11:17;23.51;30.11
70534;SHT31;58088;51.186;17.130;2023-05-10T07:13:43;23.52;29.96
70534;SHT31;58088;51.186;17.130;2023-05-10T07:16:11;23.58;30.10
70534;SHT31;58088;51.186;17.130;2023-05-10T07:18:38;23.42;30.39
70534;SHT31;58088;51.186;17.130;2023-05-10T07:21:04;23.20;30.32
70534;SHT31;58088;51.186;17.130;2023-05-10T07:23:30;23.11;30.34
70534;SHT31;58088;51.186;17.130;2023-05-10T07:25:57;23.03;30.47
70534;SHT31;58088;51.186;17.130;2023-05-10T07:28:23;22.90;30.52
70534;SHT31;58088;51.186;17.130;2023-05-10T07:30:50;22.97;30.90
70534;SHT31;58088;51.186;17.130;2023-05-10T07:33:16;22.83;31.19
70534;SHT31;58088;51.186;17.130;2023-05-10T07:35:42;22.76;31.77
70534;SHT31;58088;51.186;17.130;2023-05-10T07:38:09;22.88;31.31
70534;SHT31;58088;51.186;17.130;2023-05-10T07:40:36;22.78;31.41
70534;SHT31;58088;51.186;17.130;2023-05-10T07:43:03;22.84;31.79
70534;SHT31;58088;51.186;17.130;2023-05-10T07:45:30;22.72;31.74
70534;SHT31;58088;51.186;17.130;2023-05-10T07:47:56;22.73;32.48
70534;SHT31;58088;51.186;17.130;2023-05-10T07:50:22;22.70;32.49
70534;SHT31;58088;51.186;17.130;2023-05-10T07:52:48;22.66;32.51
70534;SHT31;58088;51.186;17.130;2023-05-10T07:55:14;22.78;32.37
70534;SHT31;58088;51.186;17.130;2023-05-10T07:57:41;22.97;32.48
70534;SHT31;58088;51.186;17.130;2023-05-10T08:00:08;22.88;32.38
70534;SHT31;58088;51.186;17.130;2023-05-10T08:02:40;22.92;32.74
70534;SHT31;58088;51.186;17.130;2023-05-10T08:05:07;22.87;32.89
70534;SHT31;58088;51.186;17.130;2023-05-10T08:07:33;22.71;33.07
70534;SHT31;58088;51.186;17.130;2023-05-10T08:09:59;22.56;33.36
70534;SHT31;58088;51.186;17.130;2023-05-10T08:12:26;22.47;33.85
70534;SHT31;58088;51.186;17.130;2023-05-10T08:14:52;22.50;33.47
70534;SHT31;58088;51.186;17.130;2023-05-10T08:17:18;22.47;33.53
70534;SHT31;58088;51.186;17.130;2023-05-10T08:19:44;22.51;33.78
70534;SHT31;58088;51.186;17.130;2023-05-10T08:22:11;22.63;34.02
70534;SHT31;58088;51.186;17.130;2023-05-10T08:24:37;22.74;34.01
70534;SHT31;58088;51.186;17.130;2023-05-10T08:27:05;22.87;33.74
70534;SHT31;58088;51.186;17.130;2023-05-10T08:29:31;22.99;33.45
70534;SHT31;58088;51.186;17.130;2023-05-10T08:31:57;23.07;33.26
70534;SHT31;58088;51.186;17.130;2023-05-10T08:34:23;23.08;33.36
70534;SHT31;58088;51.186;17.130;2023-05-10T08:36:50;23.16;33.79
70534;SHT31;58088;51.186;17.130;2023-05-10T08:39:17;23.34;33.71
70534;SHT31;58088;51.186;17.130;2023-05-10T08:41:43;23.26;33.04
70534;SHT31;58088;51.186;17.130;2023-05-10T08:44:12;22.96;33.24
70534;SHT31;58088;51.186;17.130;2023-05-10T08:46:41;22.87;33.71
70534;SHT31;58088;51.186;17.130;2023-05-10T08:49:13;22.75;33.81
70534;SHT31;58088;51.186;17.130;2023-05-10T08:51:50;22.73;34.09
70534;SHT31;58088;51.186;17.130;2023-05-10T08:54:21;22.74;33.87
70534;SHT31;58088;51.186;17.130;2023-05-10T08:56:48;22.85;33.82
70534;SHT31;58088;51.186;17.130;2023-05-10T08:59:15;22.91;33.54
70534;SHT31;58088;51.186;17.130;2023-05-10T09:01:42;22.86;33.23
70534;SHT31;58088;51.186;17.130;2023-05-10T09:04:12;22.84;33.56
70534;SHT31;58088;51.186;17.130;2023-05-10T09:06:38;22.72;33.68
70534;SHT31;58088;51.186;17.130;2023-05-10T09:09:05;22.65;33.55
70534;SHT31;58088;51.186;17.130;2023-05-10T09:11:32;22.52;33.99
70534;SHT31;58088;51.186;17.130;2023-05-10T09:13:58;22.68;34.39
70534;SHT31;58088;51.186;17.130;2023-05-10T09:16:24;22.93;33.74
70534;SHT31;58088;51.186;17.130;2023-05-10T09:18:50;23.02;33.91
70534;SHT31;58088;51.186;17.130;2023-05-10T09:21:16;23.20;33.89
70534;SHT31;58088;51.186;17.130;2023-05-10T09:23:46;23.32;33.81
70534;SHT31;58088;51.186;17.130;2023-05-10T09:26:15;23.39;33.42
70534;SHT31;58088;51.186;17.130;2023-05-10T09:28:58;23.45;32.98
70534;SHT31;58088;51.186;17.130;2023-05-10T09:34:15;23.25;32.93
70534;SHT31;58088;51.186;17.130;2023-05-10T09:37:04;23.28;32.50
70534;SHT31;58088;51.186;17.130;2023-05-10T09:39:31;23.35;32.39
70534;SHT31;58088;51.186;17.130;2023-05-10T09:42:06;23.45;32.45
70534;SHT31;58088;51.186;17.130;2023-05-10T09:44:34;23.54;32.47
70534;SHT31;58088;51.186;17.130;2023-05-10T09:47:02;23.59;32.36
70534;SHT31;58088;51.186;17.130;2023-05-10T09:49:28;23.64;32.21
70534;SHT31;58088;51.186;17.130;2023-05-10T09:52:07;23.69;32.77
70534;SHT31;58088;51.186;17.130;2023-05-10T09:54:34;23.65;32.94
70534;SHT31;58088;51.186;17.130;2023-05-10T09:57:00;23.75;33.08
70534;SHT31;58088;51.186;17.130;2023-05-10T09:59:27;23.69;32.90
70534;SHT31;58088;51.186;17.130;2023-05-10T10:01:55;23.65;32.60
70534;SHT31;58088;51.186;17.130;2023-05-10T10:04:23;23.67;32.43
70534;SHT31;58088;51.186;17.130;2023-05-10T10:07:00;23.70;32.41
70534;SHT31;58088;51.186;17.130;2023-05-10T10:09:30;23.69;32.52
70534;SHT31;58088;51.186;17.130;2023-05-10T10:11:58;23.66;31.93
70534;SHT31;58088;51.186;17.130;2023-05-10T10:14:29;23.63;32.29
70534;SHT31;58088;51.186;17.130;2023-05-10T10:16:55;23.69;32.19
70534;SHT31;58088;51.186;17.130;2023-05-10T10:19:22;23.65;32.43
70534;SHT31;58088;51.186;17.130;2023-05-10T10:21:49;23.50;32.33
70534;SHT31;58088;51.186;17.130;2023-05-10T10:24:16;23.43;32.26
70534;SHT31;58088;51.186;17.130;2023-05-10T10:26:42;23.40;32.46
70534;SHT31;58088;51.186;17.130;2023-05-10T10:29:12;23.36;32.42
70534;SHT31;58088;51.186;17.130;2023-05-10T10:31:55;23.46;32.56
70534;SHT31;58088;51.186;17.130;2023-05-10T10:34:35;23.54;32.50
70534;SHT31;58088;51.186;17.130;2023-05-10T10:37:04;23.41;32.70
70534;SHT31;58088;51.186;17.130;2023-05-10T10:39:32;23.18;33.10
70534;SHT31;58088;51.186;17.130;2023-05-10T10:41:58;23.05;33.75
70534;SHT31;58088;51.186;17.130;2023-05-10T10:44:26;23.18;33.56
70534;SHT31;58088;51.186;17.130;2023-05-10T10:47:07;23.30;33.02
70534;SHT31;58088;51.186;17.130;2023-05-10T10:49:38;23.42;32.78
70534;SHT31;58088;51.186;17.130;2023-05-10T11:02:50;23.50;31.94
70534;SHT31;58088;51.186;17.130;2023-05-10T11:13:30;23.72;32.09
70534;SHT31;58088;51.186;17.130;2023-05-10T11:18:58;23.92;32.45
70534;SHT31;58088;51.186;17.130;2023-05-10T11:21:33;24.06;32.63
70534;SHT31;58088;51.186;17.130;2023-05-10T11:24:21;23.97;32.15
70534;SHT31;58088;51.186;17.130;2023-05-10T11:26:53;23.83;32.37
70534;SHT31;58088;51.186;17.130;2023-05-10T11:29:20;23.70;32.58
70534;SHT31;58088;51.186;17.130;2023-05-10T11:31:46;23.64;32.74
70534;SHT31;58088;51.186;17.130;2023-05-10T11:34:28;23.66;32.02
70534;SHT31;58088;51.186;17.130;2023-05-10T11:36:59;23.85;32.31
70534;SHT31;58088;51.186;17.130;2023-05-10T11:39:27;24.03;32.55
70534;SHT31;58088;51.186;17.130;2023-05-10T11:41:56;23.92;31.96
70534;SHT31;58088;51.186;17.130;2023-05-10T11:44:28;23.73;32.25
70534;SHT31;58088;51.186;17.130;2023-05-10T11:47:00;23.65;32.03
70534;SHT31;58088;51.186;17.130;2023-05-10T11:49:27;23.69;31.97
70534;SHT31;58088;51.186;17.130;2023-05-10T11:52:03;23.82;31.87
70534;SHT31;58088;51.186;17.130;2023-05-10T11:54:33;23.84;31.37
70534;SHT31;58088;51.186;17.130;2023-05-10T11:57:00;23.63;31.61
70534;SHT31;58088;51.186;17.130;2023-05-10T11:59:29;23.46;31.94
70534;SHT31;58088;51.186;17.130;2023-05-10T12:01:56;23.49;32.66
70534;SHT31;58088;51.186;17.130;2023-05-10T12:04:23;23.48;32.13
70534;SHT31;58088;51.186;17.130;2023-05-10T12:06:50;23.38;32.04
70534;SHT31;58088;51.186;17.130;2023-05-10T12:09:17;23.42;31.99
70534;SHT31;58088;51.186;17.130;2023-05-10T12:11:43;23.43;32.15
70534;SHT31;58088;51.186;17.130;2023-05-10T12:14:09;23.45;32.06
70534;SHT31;58088;51.186;17.130;2023-05-10T12:16:36;23.42;32.32
70534;SHT31;58088;51.186;17.130;2023-05-10T12:19:02;23.39;32.31
70534;SHT31;58088;51.186;17.130;2023-05-10T12:21:28;23.42;32.39
70534;SHT31;58088;51.186;17.130;2023-05-10T12:24:02;23.37;32.53
70534;SHT31;58088;51.186;17.130;2023-05-10T12:26:30;23.16;31.93
70534;SHT31;58088;51.186;17.130;2023-05-10T12:29:15;23.00;32.37
70534;SHT31;58088;51.186;17.130;2023-05-10T12:31:57;22.96;32.87
70534;SHT31;58088;51.186;17.130;2023-05-10T12:34:32;23.02;32.71
70534;SHT31;58088;51.186;17.130;2023-05-10T12:37:01;23.06;32.27
70534;SHT31;58088;51.186;17.130;2023-05-10T12:39:41;23.09;32.55
70534;SHT31;58088;51.186;17.130;2023-05-10T12:42:10;23.12;31.83
70534;SHT31;58088;51.186;17.130;2023-05-10T12:44:36;23.03;31.40
70534;SHT31;58088;51.186;17.130;2023-05-10T12:47:03;22.82;31.48
70534;SHT31;58088;51.186;17.130;2023-05-10T12:49:29;22.73;31.18
70534;SHT31;58088;51.186;17.130;2023-05-10T12:51:56;22.82;31.12
70534;SHT31;58088;51.186;17.130;2023-05-10T12:54:22;22.98;31.56
70534;SHT31;58088;51.186;17.130;2023-05-10T12:56:48;23.16;32.01
70534;SHT31;58088;51.186;17.130;2023-05-10T12:59:14;23.32;32.14
70534;SHT31;58088;51.186;17.130;2023-05-10T13:01:40;23.36;31.66
70534;SHT31;58088;51.186;17.130;2023-05-10T13:04:06;23.28;31.47
70534;SHT31;58088;51.186;17.130;2023-05-10T13:06:33;23.19;31.45
70534;SHT31;58088;51.186;17.130;2023-05-10T13:08:59;23.03;31.53
70534;SHT31;58088;51.186;17.130;2023-05-10T13:11:25;22.93;31.75
70534;SHT31;58088;51.186;17.130;2023-05-10T13:13:51;22.87;31.66
70534;SHT31;58088;51.186;17.130;2023-05-10T13:16:17;22.95;31.94
70534;SHT31;58088;51.186;17.130;2023-05-10T13:18:43;23.05;31.99
70534;SHT31;58088;51.186;17.130;2023-05-10T13:21:10;23.05;31.38
70534;SHT31;58088;51.186;17.130;2023-05-10T13:23:36;23.00;31.37
70534;SHT31;58088;51.186;17.130;2023-05-10T13:26:02;22.94;31.34
70534;SHT31;58088;51.186;17.130;2023-05-10T13:28:28;22.91;31.31
70534;SHT31;58088;51.186;17.130;2023-05-10T13:30:55;22.96;31.29
70534;SHT31;58088;51.186;17.130;2023-05-10T13:33:21;23.01;31.66
70534;SHT31;58088;51.186;17.130;2023-05-10T13:35:47;23.08;31.29
70534;SHT31;58088;51.186;17.130;2023-05-10T13:38:14;23.10;31.06
70534;SHT31;58088;51.186;17.130;2023-05-10T13:40:40;23.14;31.14
70534;SHT31;58088;51.186;17.130;2023-05-10T13:43:06;23.25;30.84
70534;SHT31;58088;51.186;17.130;2023-05-10T13:45:33;23.32;30.65
70534;SHT31;58088;51.186;17.130;2023-05-10T13:47:59;23.30;30.01
70534;SHT31;58088;51.186;17.130;2023-05-10T13:50:25;23.26;29.96
70534;SHT31;58088;51.186;17.130;2023-05-10T13:52:52;23.27;30.34
70534;SHT31;58088;51.186;17.130;2023-05-10T13:55:18;23.26;30.17
70534;SHT31;58088;51.186;17.130;2023-05-10T13:57:45;23.27;30.59
70534;SHT31;58088;51.186;17.130;2023-05-10T14:00:11;23.30;30.68
70534;SHT31;58088;51.186;17.130;2023-05-10T14:02:38;23.27;30.80
70534;SHT31;58088;51.186;17.130;2023-05-10T14:05:05;23.24;31.11
70534;SHT31;58088;51.186;17.130;2023-05-10T14:07:31;23.18;30.87
70534;SHT31;58088;51.186;17.130;2023-05-10T14:09:57;23.11;31.00
70534;SHT31;58088;51.186;17.130;2023-05-10T14:12:23;23.07;30.88
70534;SHT31;58088;51.186;17.130;2023-05-10T14:14:50;23.05;30.81
70534;SHT31;58088;51.186;17.130;2023-05-10T14:17:17;23.04;30.77
70534;SHT31;58088;51.186;17.130;2023-05-10T14:19:44;23.08;30.65
70534;SHT31;58088;51.186;17.130;2023-05-10T14:22:10;23.08;30.11
70534;SHT31;58088;51.186;17.130;2023-05-10T14:24:37;23.15;30.28
70534;SHT31;58088;51.186;17.130;2023-05-10T14:27:03;23.26;30.64
70534;SHT31;58088;51.186;17.130;2023-05-10T14:29:29;23.37;30.29
70534;SHT31;58088;51.186;17.130;2023-05-10T14:31:56;23.44;30.32
70534;SHT31;58088;51.186;17.130;2023-05-10T14:34:22;23.44;29.57
70534;SHT31;58088;51.186;17.130;2023-05-10T14:36:48;23.45;29.41
70534;SHT31;58088;51.186;17.130;2023-05-10T14:39:15;23.51;29.98
70534;SHT31;58088;51.186;17.130;2023-05-10T14:41:41;23.52;30.06
70534;SHT31;58088;51.186;17.130;2023-05-10T14:44:08;23.46;29.68
70534;SHT31;58088;51.186;17.130;2023-05-10T14:46:35;23.38;29.89
70534;SHT31;58088;51.186;17.130;2023-05-10T14:49:01;23.27;30.17
70534;SHT31;58088;51.186;17.130;2023-05-10T14:51:27;23.20;30.34
70534;SHT31;58088;51.186;17.130;2023-05-10T14:53:54;23.13;30.47
70534;SHT31;58088;51.186;17.130;2023-05-10T14:56:20;23.11;30.64
70534;SHT31;58088;51.186;17.130;2023-05-10T14:58:47;23.08;30.70
70534;SHT31;58088;51.186;17.130;2023-05-10T15:01:13;23.06;30.59
70534;SHT31;58088;51.186;17.130;2023-05-10T15:03:39;23.11;30.80
70534;SHT31;58088;51.186;17.130;2023-05-10T15:06:05;23.14;31.22
70534;SHT31;58088;51.186;17.130;2023-05-10T15:08:33;23.13;30.98
70534;SHT31;58088;51.186;17.130;2023-05-10T15:11:00;23.10;31.11
70534;SHT31;58088;51.186;17.130;2023-05-10T15:13:26;23.05;31.27
70534;SHT31;58088;51.186;17.130;2023-05-10T15:15:53;23.01;31.33
70534;SHT31;58088;51.186;17.130;2023-05-10T15:18:19;23.02;31.33
70534;SHT31;58088;51.186;17.130;2023-05-10T15:20:45;23.03;30.98
70534;SHT31;58088;51.186;17.130;2023-05-10T15:23:11;22.99;31.18
70534;SHT31;58088;51.186;17.130;2023-05-10T15:25:37;23.02;31.46
70534;SHT31;58088;51.186;17.130;2023-05-10T15:28:04;23.06;31.29
70534;SHT31;58088;51.186;17.130;2023-05-10T15:30:30;23.07;31.19
70534;SHT31;58088;51.186;17.130;2023-05-10T15:32:57;23.08;31.35
70534;SHT31;58088;51.186;17.130;2023-05-10T15:35:23;23.12;31.69
70534;SHT31;58088;51.186;17.130;2023-05-10T15:37:49;23.10;31.72
70534;SHT31;58088;51.186;17.130;2023-05-10T15:40:15;23.04;31.49
70534;SHT31;58088;51.186;17.130;2023-05-10T15:42:42;22.95;31.36
70534;SHT31;58088;51.186;17.130;2023-05-10T15:45:08;22.84;31.43
70534;SHT31;58088;51.186;17.130;2023-05-10T15:47:36;22.76;31.48
70534;SHT31;58088;51.186;17.130;2023-05-10T15:50:05;22.73;31.84
70534;SHT31;58088;51.186;17.130;2023-05-10T15:52:32;22.71;32.09
70534;SHT31;58088;51.186;17.130;2023-05-10T15:54:59;22.67;32.08
70534;SHT31;58088;51.186;17.130;2023-05-10T15:57:25;22.62;32.14
70534;SHT31;58088;51.186;17.130;2023-05-10T15:59:51;22.60;32.28
70534;SHT31;58088;51.186;17.130;2023-05-10T16:02:18;22.53;32.20
70534;SHT31;58088;51.186;17.130;2023-05-10T16:04:44;22.47;32.32
70534;SHT31;58088;51.186;17.130;2023-05-10T16:07:10;22.44;32.42
70534;SHT31;58088;51.186;17.130;2023-05-10T16:09:36;22.42;32.35
70534;SHT31;58088;51.186;17.130;2023-05-10T16:12:02;22.42;32.25